sensor_id;sensor_type;location;lat;lon;timestamp;P1;durP1;ratioP1;P2;durP2;ratioP2
39208;SDS011;24929;51.982;4.664;2023-02-15T00:00:02;43.22;;;27.40;;
39208;SDS011;24929;51.982;4.664;2023-02-15T00:02:33;42.35;;;30.95;;
39208;SDS011;24929;51.982;4.664;2023-02-15T00:04:58;41.13;;;26.25;;
39208;SDS011;24929;51.982;4.664;2023-02-15T00:07:23;43.45;;;29.45;;
39208;SDS011;24929;51.982;4.664;2023-02-15T00:09:49;44.65;;;28.55;;
39208;SDS011;24929;51.982;4.664;2023-02-15T00:12:14;55.72;;;30.83;;
39208;SDS011;24929;51.982;4.664;2023-02-15T00:14:41;52.25;;;30.30;;
39208;SDS011;24929;51.982;4.664;2023-02-15T00:17:07;49.67;;;31.95;;
39208;SDS011;24929;51.982;4.664;2023-02-15T00:19:32;49.03;;;32.22;;
39208;SDS011;24929;51.982;4.664;2023-02-15T00:21:58;47.63;;;31.42;;
39208;SDS011;24929;51.982;4.664;2023-02-15T00:24:23;49.95;;;33.70;;
39208;SDS011;24929;51.982;4.664;2023-02-15T00:26:49;47.88;;;33.63;;
39208;SDS011;24929;51.982;4.664;2023-02-15T00:29:14;47.97;;;31.77;;
39208;SDS011;24929;51.982;4.664;2023-02-15T00:31:41;50.78;;;32.83;;
39208;SDS011;24929;51.982;4.664;2023-02-15T00:34:11;46.83;;;31.85;;
39208;SDS011;24929;51.982;4.664;2023-02-15T00:36:38;44.75;;;30.67;;
39208;SDS011;24929;51.982;4.664;2023-02-15T00:39:04;52.20;;;32.55;;
39208;SDS011;24929;51.982;4.664;2023-02-15T00:41:30;57.13;;;30.98;;
39208;SDS011;24929;51.982;4.664;2023-02-15T00:43:56;46.45;;;30.15;;
39208;SDS011;24929;51.982;4.664;2023-02-15T00:46:21;44.85;;;30.50;;
39208;SDS011;24929;51.982;4.664;2023-02-15T00:48:47;37.40;;;28.25;;
39208;SDS011;24929;51.982;4.664;2023-02-15T00:51:12;44.47;;;30.52;;
39208;SDS011;24929;51.982;4.664;2023-02-15T00:53:38;43.70;;;28.98;;
39208;SDS011;24929;51.982;4.664;2023-02-15T00:56:03;40.65;;;28.38;;
39208;SDS011;24929;51.982;4.664;2023-02-15T00:58:28;32.75;;;23.73;;
39208;SDS011;24929;51.982;4.664;2023-02-15T01:00:54;34.75;;;24.08;;
39208;SDS011;24929;51.982;4.664;2023-02-15T01:03:20;37.92;;;26.67;;
39208;SDS011;24929;51.982;4.664;2023-02-15T01:05:46;41.08;;;24.55;;
39208;SDS011;24929;51.982;4.664;2023-02-15T01:08:13;32.83;;;21.98;;
39208;SDS011;24929;51.982;4.664;2023-02-15T01:10:39;28.92;;;21.80;;
39208;SDS011;24929;51.982;4.664;2023-02-15T01:13:05;35.30;;;23.70;;
39208;SDS011;24929;51.982;4.664;2023-02-15T01:15:31;37.70;;;24.45;;
39208;SDS011;24929;51.982;4.664;2023-02-15T01:17:59;30.55;;;23.27;;
39208;SDS011;24929;51.982;4.664;2023-02-15T01:20:26;32.10;;;24.52;;
39208;SDS011;24929;51.982;4.664;2023-02-15T01:22:52;36.97;;;25.58;;
39208;SDS011;24929;51.982;4.664;2023-02-15T01:25:19;38.97;;;25.25;;
39208;SDS011;24929;51.982;4.664;2023-02-15T01:27:46;42.13;;;28.30;;
39208;SDS011;24929;51.982;4.664;2023-02-15T01:30:12;44.55;;;27.85;;
39208;SDS011;24929;51.982;4.664;2023-02-15T01:32:38;40.92;;;26.42;;
39208;SDS011;24929;51.982;4.664;2023-02-15T01:35:04;32.95;;;24.95;;
39208;SDS011;24929;51.982;4.664;2023-02-15T01:37:30;47.13;;;27.85;;
39208;SDS011;24929;51.982;4.664;2023-02-15T01:39:57;36.28;;;26.67;;
39208;SDS011;24929;51.982;4.664;2023-02-15T01:42:23;41.60;;;27.00;;
39208;SDS011;24929;51.982;4.664;2023-02-15T01:47:33;37.67;;;24.77;;
39208;SDS011;24929;51.982;4.664;2023-02-15T01:50:02;40.92;;;26.45;;
39208;SDS011;24929;51.982;4.664;2023-02-15T01:52:35;40.03;;;24.83;;
39208;SDS011;24929;51.982;4.664;2023-02-15T01:55:05;35.17;;;25.30;;
39208;SDS011;24929;51.982;4.664;2023-02-15T01:57:31;39.45;;;24.83;;
39208;SDS011;24929;51.982;4.664;2023-02-15T01:59:58;33.60;;;24.20;;
39208;SDS011;24929;51.982;4.664;2023-02-15T02:02:26;33.17;;;22.45;;
39208;SDS011;24929;51.982;4.664;2023-02-15T02:04:53;30.70;;;22.20;;
39208;SDS011;24929;51.982;4.664;2023-02-15T02:07:24;36.22;;;22.05;;
39208;SDS011;24929;51.982;4.664;2023-02-15T02:09:52;39.15;;;23.20;;
39208;SDS011;24929;51.982;4.664;2023-02-15T02:12:18;32.42;;;22.45;;
39208;SDS011;24929;51.982;4.664;2023-02-15T02:14:46;30.00;;;19.02;;
39208;SDS011;24929;51.982;4.664;2023-02-15T02:20:05;23.50;;;17.05;;
39208;SDS011;24929;51.982;4.664;2023-02-15T02:47:34;44.28;;;29.52;;
39208;SDS011;24929;51.982;4.664;2023-02-15T02:50:06;41.65;;;26.80;;
39208;SDS011;24929;51.982;4.664;2023-02-15T03:03:52;48.13;;;28.10;;
39208;SDS011;24929;51.982;4.664;2023-02-15T03:06:32;45.15;;;28.13;;
39208;SDS011;24929;51.982;4.664;2023-02-15T03:09:10;44.85;;;26.77;;
39208;SDS011;24929;51.982;4.664;2023-02-15T03:11:43;47.05;;;27.20;;
39208;SDS011;24929;51.982;4.664;2023-02-15T03:14:09;46.45;;;27.45;;
39208;SDS011;24929;51.982;4.664;2023-02-15T03:16:36;42.10;;;28.30;;
39208;SDS011;24929;51.982;4.664;2023-02-15T03:19:08;42.03;;;27.10;;
39208;SDS011;24929;51.982;4.664;2023-02-15T03:24:11;38.55;;;27.50;;
39208;SDS011;24929;51.982;4.664;2023-02-15T03:26:39;36.20;;;25.30;;
39208;SDS011;24929;51.982;4.664;2023-02-15T03:29:13;45.67;;;25.63;;
39208;SDS011;24929;51.982;4.664;2023-02-15T03:31:43;40.90;;;26.15;;
39208;SDS011;24929;51.982;4.664;2023-02-15T03:34:11;36.28;;;23.50;;
39208;SDS011;24929;51.982;4.664;2023-02-15T03:36:54;41.97;;;25.80;;
39208;SDS011;24929;51.982;4.664;2023-02-15T03:42:09;42.58;;;27.20;;
39208;SDS011;24929;51.982;4.664;2023-02-15T03:44:46;52.33;;;29.27;;
39208;SDS011;24929;51.982;4.664;2023-02-15T03:47:39;40.95;;;25.45;;
39208;SDS011;24929;51.982;4.664;2023-02-15T03:50:09;46.30;;;28.30;;
39208;SDS011;24929;51.982;4.664;2023-02-15T03:52:58;42.95;;;28.42;;
39208;SDS011;24929;51.982;4.664;2023-02-15T03:55:27;40.28;;;29.23;;
39208;SDS011;24929;51.982;4.664;2023-02-15T03:57:53;53.55;;;32.30;;
39208;SDS011;24929;51.982;4.664;2023-02-15T04:00:37;46.25;;;30.75;;
39208;SDS011;24929;51.982;4.664;2023-02-15T04:03:46;54.10;;;31.55;;
39208;SDS011;24929;51.982;4.664;2023-02-15T04:06:18;47.92;;;29.75;;
39208;SDS011;24929;51.982;4.664;2023-02-15T04:08:43;53.15;;;32.50;;
39208;SDS011;24929;51.982;4.664;2023-02-15T04:11:27;49.60;;;29.27;;
39208;SDS011;24929;51.982;4.664;2023-02-15T04:13:53;51.70;;;28.77;;
39208;SDS011;24929;51.982;4.664;2023-02-15T04:16:22;46.90;;;26.77;;
39208;SDS011;24929;51.982;4.664;2023-02-15T04:18:48;51.85;;;30.90;;
39208;SDS011;24929;51.982;4.664;2023-02-15T04:21:32;40.88;;;26.98;;
39208;SDS011;24929;51.982;4.664;2023-02-15T04:24:16;51.03;;;29.58;;
39208;SDS011;24929;51.982;4.664;2023-02-15T04:27:00;46.17;;;27.85;;
39208;SDS011;24929;51.982;4.664;2023-02-15T04:29:27;44.90;;;28.15;;
39208;SDS011;24929;51.982;4.664;2023-02-15T04:31:54;49.17;;;30.23;;
39208;SDS011;24929;51.982;4.664;2023-02-15T04:34:21;47.40;;;29.92;;
39208;SDS011;24929;51.982;4.664;2023-02-15T04:36:47;45.95;;;28.55;;
39208;SDS011;24929;51.982;4.664;2023-02-15T04:39:13;47.92;;;29.33;;
39208;SDS011;24929;51.982;4.664;2023-02-15T04:41:39;48.97;;;30.25;;
39208;SDS011;24929;51.982;4.664;2023-02-15T04:44:05;50.80;;;30.73;;
39208;SDS011;24929;51.982;4.664;2023-02-15T04:46:30;49.08;;;32.03;;
39208;SDS011;24929;51.982;4.664;2023-02-15T04:48:56;61.80;;;29.60;;
39208;SDS011;24929;51.982;4.664;2023-02-15T04:51:22;43.38;;;28.77;;
39208;SDS011;24929;51.982;4.664;2023-02-15T04:53:47;43.60;;;28.63;;
39208;SDS011;24929;51.982;4.664;2023-02-15T04:56:13;51.30;;;30.23;;
39208;SDS011;24929;51.982;4.664;2023-02-15T04:58:38;48.70;;;30.98;;
39208;SDS011;24929;51.982;4.664;2023-02-15T05:01:06;43.08;;;29.10;;
39208;SDS011;24929;51.982;4.664;2023-02-15T05:03:32;53.05;;;29.70;;
39208;SDS011;24929;51.982;4.664;2023-02-15T05:05:57;47.63;;;30.48;;
39208;SDS011;24929;51.982;4.664;2023-02-15T05:08:23;47.53;;;29.50;;
39208;SDS011;24929;51.982;4.664;2023-02-15T05:10:48;50.28;;;30.65;;
39208;SDS011;24929;51.982;4.664;2023-02-15T05:13:14;50.55;;;30.48;;
39208;SDS011;24929;51.982;4.664;2023-02-15T05:15:39;43.45;;;28.40;;
39208;SDS011;24929;51.982;4.664;2023-02-15T05:18:05;42.72;;;27.75;;
39208;SDS011;24929;51.982;4.664;2023-02-15T05:20:31;49.83;;;29.45;;
39208;SDS011;24929;51.982;4.664;2023-02-15T05:22:56;47.55;;;28.60;;
39208;SDS011;24929;51.982;4.664;2023-02-15T05:25:22;45.17;;;29.65;;
39208;SDS011;24929;51.982;4.664;2023-02-15T05:28:07;53.80;;;29.30;;
39208;SDS011;24929;51.982;4.664;2023-02-15T05:30:49;49.10;;;32.35;;
39208;SDS011;24929;51.982;4.664;2023-02-15T05:33:21;49.05;;;30.08;;
39208;SDS011;24929;51.982;4.664;2023-02-15T05:35:47;46.67;;;28.80;;
39208;SDS011;24929;51.982;4.664;2023-02-15T05:38:12;40.00;;;28.08;;
39208;SDS011;24929;51.982;4.664;2023-02-15T05:40:37;46.40;;;30.98;;
39208;SDS011;24929;51.982;4.664;2023-02-15T05:43:03;46.00;;;29.30;;
39208;SDS011;24929;51.982;4.664;2023-02-15T05:45:28;44.30;;;27.58;;
39208;SDS011;24929;51.982;4.664;2023-02-15T05:47:53;43.83;;;29.65;;
39208;SDS011;24929;51.982;4.664;2023-02-15T05:50:19;39.13;;;28.35;;
39208;SDS011;24929;51.982;4.664;2023-02-15T05:52:45;43.28;;;29.08;;
39208;SDS011;24929;51.982;4.664;2023-02-15T05:55:10;44.10;;;27.92;;
39208;SDS011;24929;51.982;4.664;2023-02-15T05:57:36;38.70;;;27.20;;
39208;SDS011;24929;51.982;4.664;2023-02-15T06:00:02;52.00;;;29.75;;
39208;SDS011;24929;51.982;4.664;2023-02-15T06:02:29;47.42;;;29.55;;
39208;SDS011;24929;51.982;4.664;2023-02-15T06:04:58;45.95;;;27.77;;
39208;SDS011;24929;51.982;4.664;2023-02-15T06:07:23;40.05;;;25.90;;
39208;SDS011;24929;51.982;4.664;2023-02-15T06:09:49;42.35;;;28.10;;
39208;SDS011;24929;51.982;4.664;2023-02-15T06:12:14;34.30;;;25.05;;
39208;SDS011;24929;51.982;4.664;2023-02-15T06:14:40;44.33;;;27.20;;
39208;SDS011;24929;51.982;4.664;2023-02-15T06:17:05;43.25;;;27.65;;
39208;SDS011;24929;51.982;4.664;2023-02-15T06:19:30;36.13;;;24.98;;
39208;SDS011;24929;51.982;4.664;2023-02-15T06:21:56;32.70;;;22.10;;
39208;SDS011;24929;51.982;4.664;2023-02-15T06:24:21;43.22;;;28.23;;
39208;SDS011;24929;51.982;4.664;2023-02-15T06:26:46;45.17;;;28.60;;
39208;SDS011;24929;51.982;4.664;2023-02-15T06:29:12;37.08;;;26.05;;
39208;SDS011;24929;51.982;4.664;2023-02-15T06:31:37;38.53;;;26.95;;
39208;SDS011;24929;51.982;4.664;2023-02-15T06:34:02;40.83;;;26.77;;
39208;SDS011;24929;51.982;4.664;2023-02-15T06:36:28;43.80;;;27.67;;
39208;SDS011;24929;51.982;4.664;2023-02-15T06:38:54;40.53;;;28.60;;
39208;SDS011;24929;51.982;4.664;2023-02-15T06:44:41;35.85;;;26.08;;
39208;SDS011;24929;51.982;4.664;2023-02-15T06:47:07;37.33;;;25.77;;
39208;SDS011;24929;51.982;4.664;2023-02-15T06:49:32;39.33;;;28.45;;
39208;SDS011;24929;51.982;4.664;2023-02-15T06:51:57;40.78;;;28.75;;
39208;SDS011;24929;51.982;4.664;2023-02-15T06:54:23;37.28;;;25.60;;
39208;SDS011;24929;51.982;4.664;2023-02-15T06:56:48;41.30;;;26.38;;
39208;SDS011;24929;51.982;4.664;2023-02-15T06:59:13;44.85;;;28.92;;
39208;SDS011;24929;51.982;4.664;2023-02-15T07:01:39;43.33;;;28.15;;
39208;SDS011;24929;51.982;4.664;2023-02-15T07:04:04;42.15;;;28.30;;
39208;SDS011;24929;51.982;4.664;2023-02-15T07:06:33;49.70;;;27.55;;
39208;SDS011;24929;51.982;4.664;2023-02-15T07:08:58;46.33;;;29.05;;
39208;SDS011;24929;51.982;4.664;2023-02-15T07:11:24;33.83;;;22.63;;
39208;SDS011;24929;51.982;4.664;2023-02-15T07:14:08;53.05;;;32.03;;
39208;SDS011;24929;51.982;4.664;2023-02-15T07:16:34;40.55;;;28.45;;
39208;SDS011;24929;51.982;4.664;2023-02-15T07:18:59;47.85;;;30.55;;
39208;SDS011;24929;51.982;4.664;2023-02-15T07:21:24;41.60;;;28.23;;
39208;SDS011;24929;51.982;4.664;2023-02-15T07:23:50;43.38;;;29.15;;
39208;SDS011;24929;51.982;4.664;2023-02-15T07:26:15;50.83;;;28.98;;
39208;SDS011;24929;51.982;4.664;2023-02-15T07:28:40;45.15;;;29.67;;
39208;SDS011;24929;51.982;4.664;2023-02-15T07:31:06;46.30;;;28.70;;
39208;SDS011;24929;51.982;4.664;2023-02-15T07:46:14;49.60;;;29.73;;
39208;SDS011;24929;51.982;4.664;2023-02-15T07:48:39;34.97;;;22.67;;
39208;SDS011;24929;51.982;4.664;2023-02-15T07:51:07;43.42;;;28.10;;
39208;SDS011;24929;51.982;4.664;2023-02-15T07:53:33;50.28;;;30.75;;
39208;SDS011;24929;51.982;4.664;2023-02-15T07:56:04;46.85;;;32.17;;
39208;SDS011;24929;51.982;4.664;2023-02-15T07:58:31;55.55;;;29.17;;
39208;SDS011;24929;51.982;4.664;2023-02-15T08:01:16;46.33;;;28.52;;
39208;SDS011;24929;51.982;4.664;2023-02-15T08:07:13;53.78;;;32.10;;
39208;SDS011;24929;51.982;4.664;2023-02-15T08:09:38;46.72;;;30.48;;
39208;SDS011;24929;51.982;4.664;2023-02-15T08:12:04;56.10;;;32.97;;
39208;SDS011;24929;51.982;4.664;2023-02-15T08:14:29;48.55;;;32.72;;
39208;SDS011;24929;51.982;4.664;2023-02-15T08:16:55;48.85;;;34.53;;
39208;SDS011;24929;51.982;4.664;2023-02-15T08:19:30;52.50;;;32.53;;
39208;SDS011;24929;51.982;4.664;2023-02-15T08:21:57;47.03;;;30.98;;
39208;SDS011;24929;51.982;4.664;2023-02-15T08:24:25;61.67;;;33.58;;
39208;SDS011;24929;51.982;4.664;2023-02-15T08:26:53;53.45;;;34.08;;
39208;SDS011;24929;51.982;4.664;2023-02-15T08:29:19;56.03;;;36.15;;
39208;SDS011;24929;51.982;4.664;2023-02-15T08:31:50;49.67;;;33.35;;
39208;SDS011;24929;51.982;4.664;2023-02-15T08:34:18;42.22;;;29.17;;
39208;SDS011;24929;51.982;4.664;2023-02-15T08:36:45;49.53;;;32.72;;
39208;SDS011;24929;51.982;4.664;2023-02-15T08:39:11;57.30;;;36.75;;
39208;SDS011;24929;51.982;4.664;2023-02-15T08:48:39;52.17;;;32.03;;
39208;SDS011;24929;51.982;4.664;2023-02-15T08:51:09;52.05;;;35.65;;
39208;SDS011;24929;51.982;4.664;2023-02-15T08:53:37;48.17;;;33.45;;
39208;SDS011;24929;51.982;4.664;2023-02-15T08:56:03;57.28;;;36.00;;
39208;SDS011;24929;51.982;4.664;2023-02-15T08:58:29;51.67;;;34.38;;
39208;SDS011;24929;51.982;4.664;2023-02-15T09:00:55;45.20;;;33.65;;
39208;SDS011;24929;51.982;4.664;2023-02-15T09:03:21;48.85;;;28.75;;
39208;SDS011;24929;51.982;4.664;2023-02-15T09:05:47;38.72;;;29.08;;
39208;SDS011;24929;51.982;4.664;2023-02-15T09:08:12;53.25;;;36.13;;
39208;SDS011;24929;51.982;4.664;2023-02-15T09:10:38;53.22;;;35.67;;
39208;SDS011;24929;51.982;4.664;2023-02-15T09:13:03;52.75;;;35.88;;
39208;SDS011;24929;51.982;4.664;2023-02-15T09:15:29;54.80;;;35.22;;
39208;SDS011;24929;51.982;4.664;2023-02-15T09:17:54;48.53;;;33.25;;
39208;SDS011;24929;51.982;4.664;2023-02-15T09:20:20;33.15;;;23.10;;
39208;SDS011;24929;51.982;4.664;2023-02-15T09:22:46;50.70;;;36.08;;
39208;SDS011;24929;51.982;4.664;2023-02-15T09:25:12;57.80;;;38.42;;
39208;SDS011;24929;51.982;4.664;2023-02-15T09:27:38;58.88;;;37.50;;
39208;SDS011;24929;51.982;4.664;2023-02-15T09:30:05;67.63;;;39.38;;
39208;SDS011;24929;51.982;4.664;2023-02-15T09:32:31;51.22;;;33.42;;
39208;SDS011;24929;51.982;4.664;2023-02-15T09:34:56;50.83;;;34.90;;
39208;SDS011;24929;51.982;4.664;2023-02-15T09:37:21;56.80;;;39.10;;
39208;SDS011;24929;51.982;4.664;2023-02-15T09:39:47;49.72;;;35.38;;
39208;SDS011;24929;51.982;4.664;2023-02-15T09:42:19;58.22;;;39.47;;
39208;SDS011;24929;51.982;4.664;2023-02-15T09:47:58;54.92;;;37.13;;
39208;SDS011;24929;51.982;4.664;2023-02-15T10:02:02;59.80;;;40.53;;
39208;SDS011;24929;51.982;4.664;2023-02-15T10:31:26;52.90;;;37.05;;
39208;SDS011;24929;51.982;4.664;2023-02-15T10:34:15;52.15;;;34.50;;
39208;SDS011;24929;51.982;4.664;2023-02-15T10:42:24;54.95;;;36.00;;
39208;SDS011;24929;51.982;4.664;2023-02-15T10:47:51;53.28;;;36.88;;
39208;SDS011;24929;51.982;4.664;2023-02-15T10:53:08;56.75;;;36.47;;
39208;SDS011;24929;51.982;4.664;2023-02-15T11:01:25;47.88;;;34.13;;
39208;SDS011;24929;51.982;4.664;2023-02-15T11:07:02;41.17;;;29.63;;
39208;SDS011;24929;51.982;4.664;2023-02-15T11:09:50;52.75;;;33.13;;
39208;SDS011;24929;51.982;4.664;2023-02-15T11:12:40;41.75;;;30.98;;
39208;SDS011;24929;51.982;4.664;2023-02-15T11:32:52;40.05;;;29.20;;
39208;SDS011;24929;51.982;4.664;2023-02-15T11:35:55;41.45;;;29.17;;
39208;SDS011;24929;51.982;4.664;2023-02-15T11:38:15;46.97;;;31.95;;
39208;SDS011;24929;51.982;4.664;2023-02-15T11:40:47;42.78;;;28.92;;
39208;SDS011;24929;51.982;4.664;2023-02-15T11:43:23;40.45;;;28.90;;
39208;SDS011;24929;51.982;4.664;2023-02-15T11:45:50;47.97;;;30.08;;
39208;SDS011;24929;51.982;4.664;2023-02-15T11:48:16;42.60;;;29.65;;
39208;SDS011;24929;51.982;4.664;2023-02-15T11:50:43;39.20;;;28.33;;
39208;SDS011;24929;51.982;4.664;2023-02-15T12:14:56;38.05;;;25.55;;
39208;SDS011;24929;51.982;4.664;2023-02-15T12:17:24;35.67;;;25.33;;
39208;SDS011;24929;51.982;4.664;2023-02-15T12:19:52;38.92;;;27.10;;
39208;SDS011;24929;51.982;4.664;2023-02-15T12:24:49;36.20;;;25.27;;
39208;SDS011;24929;51.982;4.664;2023-02-15T12:30:39;36.90;;;26.10;;
39208;SDS011;24929;51.982;4.664;2023-02-15T12:36:42;38.13;;;25.52;;
39208;SDS011;24929;51.982;4.664;2023-02-15T12:41:46;41.28;;;26.38;;
39208;SDS011;24929;51.982;4.664;2023-02-15T12:44:22;35.40;;;25.08;;
39208;SDS011;24929;51.982;4.664;2023-02-15T12:49:32;41.20;;;26.25;;
39208;SDS011;24929;51.982;4.664;2023-02-15T12:52:06;35.42;;;26.42;;
39208;SDS011;24929;51.982;4.664;2023-02-15T12:54:49;36.47;;;25.75;;
39208;SDS011;24929;51.982;4.664;2023-02-15T12:59:54;37.53;;;25.02;;
39208;SDS011;24929;51.982;4.664;2023-02-15T13:02:23;40.70;;;26.50;;
39208;SDS011;24929;51.982;4.664;2023-02-15T13:07:38;41.15;;;25.38;;
39208;SDS011;24929;51.982;4.664;2023-02-15T13:10:35;38.28;;;25.55;;
39208;SDS011;24929;51.982;4.664;2023-02-15T13:13:10;40.22;;;24.67;;
39208;SDS011;24929;51.982;4.664;2023-02-15T13:15:43;37.17;;;24.38;;
39208;SDS011;24929;51.982;4.664;2023-02-15T13:18:18;35.15;;;22.35;;
39208;SDS011;24929;51.982;4.664;2023-02-15T13:20:50;29.98;;;21.52;;
39208;SDS011;24929;51.982;4.664;2023-02-15T13:23:27;30.52;;;20.75;;
39208;SDS011;24929;51.982;4.664;2023-02-15T13:25:58;31.55;;;20.92;;
39208;SDS011;24929;51.982;4.664;2023-02-15T13:35:18;30.67;;;22.52;;
39208;SDS011;24929;51.982;4.664;2023-02-15T13:38:05;33.70;;;23.85;;
39208;SDS011;24929;51.982;4.664;2023-02-15T13:40:48;34.67;;;22.55;;
39208;SDS011;24929;51.982;4.664;2023-02-15T13:51:30;29.20;;;20.52;;
39208;SDS011;24929;51.982;4.664;2023-02-15T13:54:14;38.92;;;22.25;;
39208;SDS011;24929;51.982;4.664;2023-02-15T13:59:46;37.38;;;22.38;;
39208;SDS011;24929;51.982;4.664;2023-02-15T14:11:08;34.78;;;25.67;;
39208;SDS011;24929;51.982;4.664;2023-02-15T14:22:22;34.85;;;22.77;;
39208;SDS011;24929;51.982;4.664;2023-02-15T14:25:17;31.40;;;22.80;;
39208;SDS011;24929;51.982;4.664;2023-02-15T14:27:45;33.70;;;23.38;;
39208;SDS011;24929;51.982;4.664;2023-02-15T14:33:07;33.88;;;22.98;;
39208;SDS011;24929;51.982;4.664;2023-02-15T14:35:34;33.22;;;23.63;;
39208;SDS011;24929;51.982;4.664;2023-02-15T14:56:39;38.05;;;25.17;;
39208;SDS011;24929;51.982;4.664;2023-02-15T15:01:36;42.23;;;26.43;;
39208;SDS011;24929;51.982;4.664;2023-02-15T15:04:07;32.30;;;25.08;;
39208;SDS011;24929;51.982;4.664;2023-02-15T15:06:39;42.78;;;25.38;;
39208;SDS011;24929;51.982;4.664;2023-02-15T15:14:59;47.72;;;28.70;;
39208;SDS011;24929;51.982;4.664;2023-02-15T15:22:32;39.75;;;25.65;;
39208;SDS011;24929;51.982;4.664;2023-02-15T15:24:59;39.47;;;26.75;;
39208;SDS011;24929;51.982;4.664;2023-02-15T15:27:43;37.00;;;25.98;;
39208;SDS011;24929;51.982;4.664;2023-02-15T15:54:56;41.83;;;29.00;;
39208;SDS011;24929;51.982;4.664;2023-02-15T15:57:49;39.80;;;26.92;;
39208;SDS011;24929;51.982;4.664;2023-02-15T16:02:54;47.75;;;29.75;;
39208;SDS011;24929;51.982;4.664;2023-02-15T16:05:20;42.38;;;29.90;;
39208;SDS011;24929;51.982;4.664;2023-02-15T16:07:46;48.15;;;29.67;;
39208;SDS011;24929;51.982;4.664;2023-02-15T16:10:25;51.75;;;28.92;;
39208;SDS011;24929;51.982;4.664;2023-02-15T16:12:52;42.85;;;29.08;;
39208;SDS011;24929;51.982;4.664;2023-02-15T16:15:20;45.72;;;28.75;;
39208;SDS011;24929;51.982;4.664;2023-02-15T16:17:50;44.53;;;29.88;;
39208;SDS011;24929;51.982;4.664;2023-02-15T16:25:35;39.63;;;29.27;;
39208;SDS011;24929;51.982;4.664;2023-02-15T16:28:08;46.28;;;28.73;;
39208;SDS011;24929;51.982;4.664;2023-02-15T16:30:37;50.95;;;31.52;;
39208;SDS011;24929;51.982;4.664;2023-02-15T16:33:08;42.45;;;29.13;;
39208;SDS011;24929;51.982;4.664;2023-02-15T16:35:36;42.83;;;28.55;;
39208;SDS011;24929;51.982;4.664;2023-02-15T16:38:04;45.65;;;28.95;;
39208;SDS011;24929;51.982;4.664;2023-02-15T16:40:51;41.70;;;28.60;;
39208;SDS011;24929;51.982;4.664;2023-02-15T16:43:23;38.65;;;29.23;;
39208;SDS011;24929;51.982;4.664;2023-02-15T16:46:00;37.08;;;27.27;;
39208;SDS011;24929;51.982;4.664;2023-02-15T16:48:29;45.03;;;29.63;;
39208;SDS011;24929;51.982;4.664;2023-02-15T16:50:56;42.00;;;29.00;;
39208;SDS011;24929;51.982;4.664;2023-02-15T16:53:25;42.47;;;30.05;;
39208;SDS011;24929;51.982;4.664;2023-02-15T16:56:01;43.20;;;28.10;;
39208;SDS011;24929;51.982;4.664;2023-02-15T16:58:31;46.45;;;32.00;;
39208;SDS011;24929;51.982;4.664;2023-02-15T17:01:02;48.78;;;32.70;;
39208;SDS011;24929;51.982;4.664;2023-02-15T17:03:32;47.85;;;31.80;;
39208;SDS011;24929;51.982;4.664;2023-02-15T17:05:58;40.25;;;29.23;;
39208;SDS011;24929;51.982;4.664;2023-02-15T17:13:38;42.75;;;28.42;;
39208;SDS011;24929;51.982;4.664;2023-02-15T17:16:26;46.70;;;30.38;;
39208;SDS011;24929;51.982;4.664;2023-02-15T17:18:53;47.10;;;28.60;;
39208;SDS011;24929;51.982;4.664;2023-02-15T17:21:24;43.55;;;28.63;;
39208;SDS011;24929;51.982;4.664;2023-02-15T17:24:01;42.83;;;30.67;;
39208;SDS011;24929;51.982;4.664;2023-02-15T17:26:30;42.38;;;28.20;;
39208;SDS011;24929;51.982;4.664;2023-02-15T17:28:58;38.63;;;27.83;;
39208;SDS011;24929;51.982;4.664;2023-02-15T17:31:30;51.67;;;31.63;;
39208;SDS011;24929;51.982;4.664;2023-02-15T17:33:58;37.92;;;28.65;;
39208;SDS011;24929;51.982;4.664;2023-02-15T17:36:26;39.72;;;30.10;;
39208;SDS011;24929;51.982;4.664;2023-02-15T17:41:32;46.00;;;26.75;;
39208;SDS011;24929;51.982;4.664;2023-02-15T17:43:59;43.40;;;28.65;;
39208;SDS011;24929;51.982;4.664;2023-02-15T17:46:25;36.85;;;27.00;;
39208;SDS011;24929;51.982;4.664;2023-02-15T17:48:54;49.83;;;29.85;;
39208;SDS011;24929;51.982;4.664;2023-02-15T17:51:20;40.13;;;29.20;;
39208;SDS011;24929;51.982;4.664;2023-02-15T17:53:46;42.83;;;29.23;;
39208;SDS011;24929;51.982;4.664;2023-02-15T17:56:31;43.40;;;27.60;;
39208;SDS011;24929;51.982;4.664;2023-02-15T17:59:01;40.42;;;27.00;;
39208;SDS011;24929;51.982;4.664;2023-02-15T18:01:31;50.28;;;30.85;;
39208;SDS011;24929;51.982;4.664;2023-02-15T18:04:15;41.05;;;28.85;;
39208;SDS011;24929;51.982;4.664;2023-02-15T18:06:59;42.55;;;27.15;;
39208;SDS011;24929;51.982;4.664;2023-02-15T18:09:43;39.55;;;27.95;;
39208;SDS011;24929;51.982;4.664;2023-02-15T18:12:29;44.28;;;27.20;;
39208;SDS011;24929;51.982;4.664;2023-02-15T18:14:58;41.65;;;27.77;;
39208;SDS011;24929;51.982;4.664;2023-02-15T18:17:38;36.35;;;27.85;;
39208;SDS011;24929;51.982;4.664;2023-02-15T18:20:10;46.50;;;30.38;;
39208;SDS011;24929;51.982;4.664;2023-02-15T18:22:42;43.38;;;29.33;;
39208;SDS011;24929;51.982;4.664;2023-02-15T18:25:12;41.28;;;30.38;;
39208;SDS011;24929;51.982;4.664;2023-02-15T18:27:39;40.65;;;27.70;;
39208;SDS011;24929;51.982;4.664;2023-02-15T18:30:05;37.13;;;27.13;;
39208;SDS011;24929;51.982;4.664;2023-02-15T18:32:33;43.75;;;28.58;;
39208;SDS011;24929;51.982;4.664;2023-02-15T18:35:01;46.33;;;28.88;;
39208;SDS011;24929;51.982;4.664;2023-02-15T18:37:29;42.65;;;28.90;;
39208;SDS011;24929;51.982;4.664;2023-02-15T18:39:57;46.42;;;28.13;;
39208;SDS011;24929;51.982;4.664;2023-02-15T18:42:28;34.25;;;26.73;;
39208;SDS011;24929;51.982;4.664;2023-02-15T18:45:44;44.88;;;29.17;;
39208;SDS011;24929;51.982;4.664;2023-02-15T18:47:56;41.45;;;28.10;;
39208;SDS011;24929;51.982;4.664;2023-02-15T18:50:29;40.25;;;26.67;;
39208;SDS011;24929;51.982;4.664;2023-02-15T18:52:57;35.47;;;27.15;;
39208;SDS011;24929;51.982;4.664;2023-02-15T18:55:26;39.17;;;27.95;;
39208;SDS011;24929;51.982;4.664;2023-02-15T18:57:53;45.00;;;29.77;;
39208;SDS011;24929;51.982;4.664;2023-02-15T19:00:21;41.63;;;29.20;;
39208;SDS011;24929;51.982;4.664;2023-02-15T19:02:52;37.55;;;28.45;;
39208;SDS011;24929;51.982;4.664;2023-02-15T19:05:18;43.85;;;30.02;;
39208;SDS011;24929;51.982;4.664;2023-02-15T19:07:43;42.35;;;29.05;;
39208;SDS011;24929;51.982;4.664;2023-02-15T19:10:12;40.58;;;28.48;;
39208;SDS011;24929;51.982;4.664;2023-02-15T19:12:41;42.75;;;29.13;;
39208;SDS011;24929;51.982;4.664;2023-02-15T19:15:17;42.33;;;27.80;;
39208;SDS011;24929;51.982;4.664;2023-02-15T19:17:44;40.45;;;26.42;;
39208;SDS011;24929;51.982;4.664;2023-02-15T19:20:17;44.75;;;30.23;;
39208;SDS011;24929;51.982;4.664;2023-02-15T19:22:47;38.58;;;27.90;;
39208;SDS011;24929;51.982;4.664;2023-02-15T19:25:32;42.78;;;29.45;;
39208;SDS011;24929;51.982;4.664;2023-02-15T19:28:03;39.03;;;25.30;;
39208;SDS011;24929;51.982;4.664;2023-02-15T19:30:33;39.00;;;28.48;;
39208;SDS011;24929;51.982;4.664;2023-02-15T19:32:58;41.50;;;27.40;;
39208;SDS011;24929;51.982;4.664;2023-02-15T19:35:31;38.05;;;26.80;;
39208;SDS011;24929;51.982;4.664;2023-02-15T19:37:59;41.13;;;28.92;;
39208;SDS011;24929;51.982;4.664;2023-02-15T19:40:29;38.55;;;26.92;;